Time;durP1;ratioP1;P1;durP2;ratioP2;P2;SDS_P1;SDS_P2;PMS_P1;PMS_P2;Temp;Humidity;BMP_temperature;BMP_pressure;BME280_temperature;BME280_humidity;BME280_pressure;Samples;Min_cycle;Max_cycle;Signal;HPM_P1;HPM_P2
2022/10/10 00:00:03;;;;;;;5.47;2.97;;;11.60;99.90;;;;;;5019633;28;20635;-81
2022/10/10 00:02:29;;;;;;;2.80;2.50;;;11.50;99.90;;;;;;5027438;28;21000;-81
2022/10/10 00:04:56;;;;;;;4.07;3.03;;;11.60;99.90;;;;;;5028351;28;20629;-81
2022/10/10 00:07:23;;;;;;;4.33;3.90;;;11.70;99.90;;;;;;5028146;28;20615;-81
2022/10/10 00:09:50;;;;;;;3.50;3.20;;;11.70;99.90;;;;;;5028467;28;20637;-81
2022/10/10 00:12:17;;;;;;;3.03;2.73;;;11.70;99.90;;;;;;5028699;28;20991;-81
2022/10/10 00:14:45;;;;;;;3.60;2.53;;;11.90;99.90;;;;;;5027719;28;20750;-81
2022/10/10 00:17:11;;;;;;;3.90;3.60;;;11.80;99.90;;;;;;5027720;28;20701;-81
2022/10/10 00:19:38;;;;;;;5.77;3.37;;;11.80;99.90;;;;;;5028417;28;20627;-81
2022/10/10 00:22:05;;;;;;;4.87;3.87;;;11.80;99.90;;;;;;5028426;28;20758;-80
2022/10/10 00:24:32;;;;;;;3.47;3.20;;;11.80;99.90;;;;;;5028087;28;21189;-81
2022/10/10 00:26:59;;;;;;;2.77;2.00;;;11.80;99.90;;;;;;5027544;28;20634;-82
2022/10/10 00:29:25;;;;;;;4.83;3.10;;;11.80;99.90;;;;;;5028080;28;20619;-81
2022/10/10 00:31:53;;;;;;;2.93;2.73;;;11.90;99.90;;;;;;5027876;28;21268;-81
2022/10/10 00:34:20;;;;;;;2.80;2.60;;;11.80;99.90;;;;;;5028146;28;20629;-81
2022/10/10 00:36:47;;;;;;;4.00;3.67;;;11.80;99.90;;;;;;5027370;28;21062;-80
2022/10/10 00:39:14;;;;;;;2.60;2.40;;;11.80;99.90;;;;;;5028108;28;20623;-80
2022/10/10 00:41:41;;;;;;;2.60;2.40;;;11.80;99.90;;;;;;5027475;28;20666;-81
2022/10/10 00:44:09;;;;;;;5.33;3.93;;;11.80;99.90;;;;;;5028302;28;20726;-81
2022/10/10 00:46:36;;;;;;;3.30;3.07;;;11.80;99.90;;;;;;5027905;28;20627;-81
2022/10/10 00:49:10;;;;;;;3.90;3.30;;;11.80;99.90;;;;;;5027882;28;20650;-81
2022/10/10 00:51:37;;;;;;;4.27;3.13;;;11.80;99.90;;;;;;5027875;28;20619;-81
2022/10/10 00:54:07;;;;;;;6.13;4.00;;;11.80;99.90;;;;;;5028446;28;21282;-82
2022/10/10 00:56:39;;;;;;;4.60;2.80;;;11.80;99.90;;;;;;5028136;28;20669;-82
2022/10/10 00:59:10;;;;;;;3.97;2.90;;;11.80;99.90;;;;;;5027693;28;20629;-81
2022/10/10 01:01:37;;;;;;;3.73;3.03;;;11.80;99.90;;;;;;5028839;28;21270;-81
2022/10/10 01:04:06;;;;;;;4.50;3.33;;;11.80;99.90;;;;;;5020399;28;20631;-81
2022/10/10 01:06:34;;;;;;;3.13;2.73;;;11.80;99.90;;;;;;5011345;28;20714;-81
2022/10/10 01:09:01;;;;;;;4.07;3.70;;;11.80;99.90;;;;;;5011656;28;20616;-81
2022/10/10 01:11:46;;;;;;;3.63;3.30;;;11.80;99.90;;;;;;5011848;28;21077;-81
2022/10/10 01:14:28;;;;;;;6.53;2.67;;;11.80;99.90;;;;;;5011910;28;20654;-81
2022/10/10 01:17:06;;;;;;;4.53;2.60;;;11.90;99.90;;;;;;5023532;28;20704;-81
2022/10/10 01:20:23;;;;;;;2.30;2.10;;;11.90;99.90;;;;;;5031516;28;20701;-81
2022/10/10 01:23:06;;;;;;;2.97;2.70;;;11.90;99.90;;;;;;5013855;28;21117;-81
2022/10/10 01:25:45;;;;;;;4.50;3.20;;;11.90;99.90;;;;;;5031241;28;21372;-81
2022/10/10 01:28:26;;;;;;;4.07;3.17;;;11.90;99.90;;;;;;5030639;28;20610;-81
2022/10/10 01:30:57;;;;;;;4.40;3.30;;;11.90;99.90;;;;;;5031266;28;20599;-81
2022/10/10 01:33:31;;;;;;;4.90;3.30;;;11.90;99.90;;;;;;5031554;28;20618;-81
2022/10/10 01:36:04;;;;;;;5.20;4.17;;;11.90;99.90;;;;;;5032395;28;20641;-81
2022/10/10 01:38:38;;;;;;;5.63;3.07;;;11.90;99.90;;;;;;5030683;28;20615;-82
2022/10/10 01:41:10;;;;;;;5.43;3.87;;;11.90;99.90;;;;;;5026509;28;20656;-81
2022/10/10 01:43:39;;;;;;;2.03;1.93;;;11.90;99.90;;;;;;5011516;28;20984;-81
2022/10/10 01:46:10;;;;;;;8.13;3.63;;;11.90;99.90;;;;;;5011352;28;20694;-81
2022/10/10 01:48:38;;;;;;;3.70;3.40;;;11.80;99.90;;;;;;5027511;28;20619;-81
2022/10/10 01:51:25;;;;;;;2.50;2.30;;;11.80;99.90;;;;;;5031219;28;20734;-81
2022/10/10 01:54:01;;;;;;;4.13;3.73;;;11.70;99.90;;;;;;5030876;28;20714;-81
2022/10/10 01:56:39;;;;;;;4.07;3.77;;;11.70;99.90;;;;;;5031086;28;21025;-81
2022/10/10 01:59:17;;;;;;;2.80;2.30;;;11.70;99.90;;;;;;5022089;28;20658;-81
2022/10/10 02:01:51;;;;;;;3.27;2.37;;;11.70;99.90;;;;;;5029334;28;20649;-81
2022/10/10 02:04:24;;;;;;;3.70;3.27;;;11.70;99.90;;;;;;5017887;28;20718;-81
2022/10/10 02:06:54;;;;;;;3.27;2.70;;;11.80;99.90;;;;;;5010522;28;20624;-81
2022/10/10 02:09:28;;;;;;;4.37;3.30;;;11.80;99.90;;;;;;5010773;28;20616;-81
2022/10/10 02:11:56;;;;;;;2.40;2.20;;;11.80;99.90;;;;;;5010533;28;20948;-81
2022/10/10 02:14:30;;;;;;;3.07;2.87;;;11.70;99.90;;;;;;5010776;28;21074;-81
2022/10/10 02:17:00;;;;;;;3.60;3.20;;;11.70;99.90;;;;;;5022612;28;20675;-81
2022/10/10 02:19:30;;;;;;;3.50;3.10;;;11.60;99.90;;;;;;5029823;28;20672;-81
2022/10/10 02:21:57;;;;;;;3.73;3.43;;;11.70;99.90;;;;;;5030509;28;20671;-81
2022/10/10 02:24:25;;;;;;;2.90;2.60;;;11.70;99.90;;;;;;5030124;28;20639;-81
2022/10/10 02:26:56;;;;;;;3.00;2.67;;;11.70;99.90;;;;;;5029944;28;20610;-81
2022/10/10 02:29:28;;;;;;;4.70;3.07;;;11.60;99.90;;;;;;5030015;28;20980;-81
2022/10/10 02:32:03;;;;;;;5.80;2.93;;;11.70;99.90;;;;;;5030113;28;20607;-81
2022/10/10 02:34:34;;;;;;;3.03;2.77;;;11.70;99.90;;;;;;5030247;28;20705;-83
2022/10/10 02:37:05;;;;;;;4.40;3.53;;;11.70;99.90;;;;;;5029630;28;20680;-81
2022/10/10 02:39:36;;;;;;;3.60;3.30;;;11.80;99.90;;;;;;5030201;28;20722;-81
2022/10/10 02:42:04;;;;;;;3.30;2.30;;;11.80;99.90;;;;;;5029827;28;20644;-81
2022/10/10 02:44:33;;;;;;;3.73;3.07;;;11.80;99.90;;;;;;5029410;28;20656;-82
2022/10/10 02:47:01;;;;;;;4.70;2.80;;;11.70;99.90;;;;;;5029026;28;21169;-81
2022/10/10 02:49:30;;;;;;;2.97;2.70;;;11.70;99.90;;;;;;5029664;28;20723;-81
2022/10/10 02:51:57;;;;;;;5.07;3.37;;;11.70;99.90;;;;;;5030125;28;20611;-80
2022/10/10 02:54:24;;;;;;;3.07;2.80;;;11.80;99.90;;;;;;5029913;28;20610;-81
2022/10/10 02:56:52;;;;;;;2.83;2.53;;;11.70;99.90;;;;;;5029171;28;20610;-81
2022/10/10 02:59:20;;;;;;;4.07;3.00;;;11.70;99.90;;;;;;5021165;28;20623;-81
2022/10/10 03:01:48;;;;;;;3.10;2.90;;;11.70;99.90;;;;;;5028802;28;20674;-81
2022/10/10 03:04:15;;;;;;;3.53;3.27;;;11.70;99.90;;;;;;5029972;28;20665;-81
2022/10/10 03:06:42;;;;;;;3.70;2.50;;;11.80;99.90;;;;;;5029074;28;20718;-81
2022/10/10 03:09:09;;;;;;;2.93;2.67;;;11.80;99.90;;;;;;5029513;28;20630;-80
2022/10/10 03:11:36;;;;;;;3.67;3.20;;;11.80;99.90;;;;;;5029212;28;20625;-81
2022/10/10 03:14:03;;;;;;;3.60;3.30;;;11.70;99.90;;;;;;5029486;28;21193;-81
2022/10/10 03:16:29;;;;;;;3.77;2.67;;;11.70;99.90;;;;;;5029365;28;20618;-81
2022/10/10 03:18:57;;;;;;;3.30;3.00;;;11.60;99.90;;;;;;5028963;28;20611;-81
2022/10/10 03:21:24;;;;;;;2.80;2.60;;;11.60;99.90;;;;;;5029231;28;20661;-81
2022/10/10 03:23:51;;;;;;;9.37;4.00;;;11.60;99.90;;;;;;5028252;28;20706;-81
2022/10/10 03:26:18;;;;;;;2.70;2.50;;;11.70;99.90;;;;;;5028855;28;20623;-81
2022/10/10 03:28:45;;;;;;;4.10;3.07;;;11.60;99.90;;;;;;5028760;28;20622;-80
2022/10/10 03:31:11;;;;;;;4.13;2.97;;;11.60;99.90;;;;;;5029203;28;20750;-81
2022/10/10 03:33:38;;;;;;;1.90;1.70;;;11.50;99.90;;;;;;5029334;28;20739;-81
2022/10/10 03:36:07;;;;;;;2.30;2.10;;;11.50;99.90;;;;;;5028670;28;20630;-81
2022/10/10 03:38:34;;;;;;;3.00;2.63;;;11.50;99.90;;;;;;5028374;28;21114;-81
2022/10/10 03:41:00;;;;;;;2.80;2.27;;;11.50;99.90;;;;;;5028213;28;20697;-81
2022/10/10 03:43:27;;;;;;;2.37;2.17;;;11.50;99.90;;;;;;5029116;28;20619;-81
2022/10/10 03:45:54;;;;;;;4.83;2.90;;;11.50;99.90;;;;;;5029113;28;20679;-82
2022/10/10 03:48:21;;;;;;;2.47;2.27;;;11.50;99.90;;;;;;5027632;28;20633;-81
2022/10/10 03:50:48;;;;;;;2.50;2.10;;;11.50;99.90;;;;;;5028804;28;20746;-81
2022/10/10 03:53:16;;;;;;;4.40;2.47;;;11.50;99.90;;;;;;5028395;28;20631;-82
2022/10/10 03:55:43;;;;;;;3.10;2.40;;;11.50;99.90;;;;;;5028669;28;20706;-81
2022/10/10 03:58:11;;;;;;;3.70;3.40;;;11.50;99.90;;;;;;5024663;28;20619;-81
2022/10/10 04:00:38;;;;;;;4.20;3.10;;;11.50;99.90;;;;;;5023530;28;20730;-82
2022/10/10 04:03:05;;;;;;;2.60;2.33;;;11.50;99.90;;;;;;5028164;28;20663;-81
2022/10/10 04:05:33;;;;;;;5.33;3.27;;;11.50;99.90;;;;;;5028512;28;20978;-82
2022/10/10 04:08:00;;;;;;;3.20;2.33;;;11.50;99.90;;;;;;5027600;28;20634;-80
2022/10/10 04:10:28;;;;;;;3.40;3.10;;;11.50;99.90;;;;;;5028787;28;20639;-79
2022/10/10 04:12:55;;;;;;;3.50;2.53;;;11.50;99.90;;;;;;5028600;28;20714;-80
2022/10/10 04:15:22;;;;;;;4.50;2.57;;;11.60;99.90;;;;;;5028587;28;20619;-79
2022/10/10 04:17:49;;;;;;;3.90;2.43;;;11.40;99.90;;;;;;5007699;28;20608;-80
2022/10/10 04:20:16;;;;;;;3.37;3.07;;;11.50;99.90;;;;;;5008495;28;21289;-82
2022/10/10 04:22:43;;;;;;;3.67;2.67;;;11.50;99.90;;;;;;5008575;28;20660;-80
2022/10/10 04:25:10;;;;;;;4.90;2.63;;;11.40;99.90;;;;;;5008748;28;20711;-80
2022/10/10 04:27:39;;;;;;;3.23;2.77;;;11.50;99.90;;;;;;5007807;28;20626;-80
2022/10/10 04:30:07;;;;;;;2.17;1.97;;;11.40;99.90;;;;;;5008713;28;20727;-80
2022/10/10 04:32:34;;;;;;;2.20;2.10;;;11.40;99.90;;;;;;5008342;28;20718;-80
2022/10/10 04:35:00;;;;;;;2.97;2.20;;;11.40;99.90;;;;;;5007528;28;20638;-80
2022/10/10 04:37:27;;;;;;;2.70;2.50;;;11.40;99.90;;;;;;5007807;28;21021;-80
2022/10/10 04:39:54;;;;;;;2.90;2.70;;;11.40;99.90;;;;;;5008271;28;20636;-80
2022/10/10 04:42:21;;;;;;;3.00;2.70;;;11.40;99.90;;;;;;5023638;28;20665;-80
2022/10/10 04:44:49;;;;;;;5.70;2.57;;;11.40;99.90;;;;;;5027986;28;20733;-80
2022/10/10 04:47:16;;;;;;;3.47;2.17;;;11.40;99.90;;;;;;5027756;28;20627;-80
2022/10/10 04:49:42;;;;;;;2.67;2.47;;;11.40;99.90;;;;;;5016405;28;20717;-80
2022/10/10 04:52:10;;;;;;;3.00;2.80;;;11.30;99.90;;;;;;5008438;28;20710;-80
2022/10/10 04:54:37;;;;;;;3.17;2.80;;;11.40;99.90;;;;;;5026148;28;20633;-80
2022/10/10 04:57:04;;;;;;;3.37;3.10;;;11.30;99.90;;;;;;5027657;28;20627;-80
2022/10/10 04:59:30;;;;;;;2.47;2.27;;;11.30;99.90;;;;;;5021829;28;20628;-80
2022/10/10 05:01:59;;;;;;;3.57;3.27;;;11.40;99.90;;;;;;5006846;28;21217;-81
2022/10/10 05:04:26;;;;;;;2.40;2.03;;;11.40;99.90;;;;;;5021477;28;20651;-80
2022/10/10 05:06:53;;;;;;;2.77;2.47;;;11.40;99.90;;;;;;5016443;28;20634;-80
2022/10/10 05:09:20;;;;;;;3.57;2.60;;;;;;;;;;5022976;28;20981;-80
2022/10/10 05:11:47;;;;;;;3.47;1.93;;;11.50;99.90;;;;;;5026009;28;20956;-81
2022/10/10 05:14:13;;;;;;;3.43;3.13;;;11.50;99.90;;;;;;5025929;28;20649;-81
2022/10/10 05:16:40;;;;;;;2.83;2.27;;;11.50;99.90;;;;;;5021472;28;20631;-81
2022/10/10 05:19:08;;;;;;;2.90;2.50;;;11.50;99.90;;;;;;5006527;28;20718;-81
2022/10/10 05:21:35;;;;;;;3.53;2.60;;;11.50;99.90;;;;;;5005711;28;20694;-80
2022/10/10 05:24:02;;;;;;;3.30;3.00;;;11.40;99.90;;;;;;5017919;28;20627;-81
2022/10/10 05:26:29;;;;;;;2.87;1.93;;;11.40;99.90;;;;;;5027518;28;20733;-80
2022/10/10 05:28:56;;;;;;;3.37;2.53;;;11.40;99.90;;;;;;5026690;28;20763;-80
2022/10/10 05:31:23;;;;;;;3.33;2.70;;;11.40;99.90;;;;;;5026768;28;20609;-80
2022/10/10 05:33:49;;;;;;;2.93;2.67;;;11.40;99.90;;;;;;5027391;28;20913;-82
2022/10/10 05:36:18;;;;;;;5.73;2.67;;;11.30;99.90;;;;;;5027050;28;20615;-80
2022/10/10 05:38:44;;;;;;;2.97;2.77;;;11.40;99.90;;;;;;5027264;28;20726;-82
2022/10/10 05:41:12;;;;;;;4.10;3.30;;;11.40;99.90;;;;;;5021408;28;20648;-81
2022/10/10 05:43:39;;;;;;;2.60;2.40;;;11.40;99.90;;;;;;5007360;28;20661;-81
2022/10/10 05:46:06;;;;;;;4.33;2.60;;;11.40;99.90;;;;;;5008058;28;20620;-81
2022/10/10 05:48:33;;;;;;;8.23;2.37;;;11.30;99.90;;;;;;5026850;28;21263;-81
2022/10/10 05:51:00;;;;;;;5.20;2.73;;;11.40;99.90;;;;;;5030889;28;20618;-80
2022/10/10 05:53:30;;;;;;;4.20;2.40;;;11.40;99.90;;;;;;5030536;28;20615;-81
2022/10/10 05:55:57;;;;;;;5.17;3.17;;;11.30;99.90;;;;;;5014119;28;20638;-81
2022/10/10 05:58:24;;;;;;;3.60;3.30;;;11.40;99.90;;;;;;5029267;28;20626;-81
2022/10/10 06:00:50;;;;;;;2.97;2.67;;;11.50;99.90;;;;;;5029811;28;20617;-81
2022/10/10 06:03:17;;;;;;;4.03;3.40;;;11.60;99.90;;;;;;5030012;28;20684;-80
2022/10/10 06:05:47;;;;;;;4.57;2.40;;;11.70;99.90;;;;;;5030609;28;20979;-81
2022/10/10 06:08:14;;;;;;;5.20;2.67;;;11.80;99.90;;;;;;5028535;28;20623;-81
2022/10/10 06:10:44;;;;;;;2.80;2.60;;;11.80;99.90;;;;;;5030200;28;20610;-81
2022/10/10 06:13:12;;;;;;;2.70;2.50;;;11.80;99.90;;;;;;5030771;28;20749;-81
2022/10/10 06:15:40;;;;;;;2.47;2.37;;;11.70;99.90;;;;;;5030226;28;20703;-80
2022/10/10 06:18:07;;;;;;;4.60;3.40;;;11.80;99.90;;;;;;5030069;28;21240;-81
2022/10/10 06:20:34;;;;;;;2.50;2.23;;;11.80;99.90;;;;;;5029575;28;20697;-81
2022/10/10 06:23:01;;;;;;;2.77;2.47;;;11.70;99.90;;;;;;5029885;28;20650;-81
2022/10/10 06:25:28;;;;;;;4.13;3.40;;;11.80;99.90;;;;;;5029195;28;20630;-81
2022/10/10 06:27:56;;;;;;;3.03;2.20;;;11.80;99.90;;;;;;5029528;28;20658;-80
2022/10/10 06:30:23;;;;;;;2.40;2.20;;;11.80;99.90;;;;;;5029947;28;20623;-81
2022/10/10 06:32:50;;;;;;;4.20;2.83;;;11.80;99.90;;;;;;5029734;28;20669;-82
2022/10/10 06:35:17;;;;;;;2.57;2.37;;;11.90;99.90;;;;;;5029204;28;20669;-80
2022/10/10 06:37:44;;;;;;;3.00;2.47;;;12.00;99.90;;;;;;5028850;28;21093;-81
2022/10/10 06:40:11;;;;;;;2.87;2.57;;;12.00;99.90;;;;;;5029461;28;20725;-80
2022/10/10 06:42:38;;;;;;;2.87;2.60;;;12.00;99.90;;;;;;5011832;28;20667;-80
2022/10/10 06:45:08;;;;;;;2.63;2.33;;;12.00;99.90;;;;;;5009857;28;20742;-81
2022/10/10 06:47:35;;;;;;;2.00;1.70;;;12.00;99.90;;;;;;5018366;28;20632;-81
2022/10/10 06:50:02;;;;;;;3.67;3.33;;;12.10;99.90;;;;;;5016275;28;20626;-80
2022/10/10 06:52:29;;;;;;;2.20;2.10;;;12.10;99.90;;;;;;5009625;28;20651;-80
2022/10/10 06:54:55;;;;;;;3.63;2.30;;;12.20;99.90;;;;;;5009943;28;20618;-80
2022/10/10 06:57:22;;;;;;;3.30;2.70;;;12.20;99.90;;;;;;5008956;28;20632;-81
2022/10/10 06:59:49;;;;;;;3.20;2.47;;;12.30;99.90;;;;;;5026425;28;21053;-81
2022/10/10 07:02:18;;;;;;;3.97;3.60;;;12.30;99.90;;;;;;5028223;28;20682;-81
2022/10/10 07:04:45;;;;;;;3.20;2.33;;;12.40;99.90;;;;;;5028980;28;20619;-80
2022/10/10 07:07:12;;;;;;;3.50;3.20;;;12.50;99.90;;;;;;5027982;28;20706;-81
2022/10/10 07:09:39;;;;;;;2.27;2.07;;;12.50;99.90;;;;;;5028354;28;20630;-81
2022/10/10 07:12:05;;;;;;;3.90;3.37;;;12.60;99.90;;;;;;5028512;28;21327;-81
2022/10/10 07:14:32;;;;;;;2.80;2.33;;;12.70;99.90;;;;;;5028921;28;20619;-82
2022/10/10 07:16:59;;;;;;;2.20;1.80;;;12.70;99.90;;;;;;5028535;28;20637;-81
2022/10/10 07:19:27;;;;;;;2.27;2.10;;;12.80;99.90;;;;;;5023411;28;20628;-82
2022/10/10 07:21:54;;;;;;;5.30;2.90;;;12.90;99.90;;;;;;5008881;28;20624;-81
2022/10/10 07:24:21;;;;;;;2.13;1.90;;;12.90;99.90;;;;;;5022131;28;21264;-81
2022/10/10 07:26:53;;;;;;;2.10;1.80;;;13.00;99.90;;;;;;5028202;28;20627;-81
2022/10/10 07:29:20;;;;;;;2.53;2.33;;;13.00;99.90;;;;;;5028341;28;20638;-81
2022/10/10 07:31:46;;;;;;;3.93;3.23;;;13.10;99.90;;;;;;5028390;28;20639;-81
2022/10/10 07:34:13;;;;;;;5.60;3.00;;;13.10;99.90;;;;;;5028454;28;20980;-81
2022/10/10 07:36:42;;;;;;;3.30;3.00;;;13.10;99.90;;;;;;5027432;28;20630;-79
2022/10/10 07:39:09;;;;;;;3.53;2.10;;;13.20;99.90;;;;;;5028515;28;20631;-81
2022/10/10 07:41:35;;;;;;;3.77;3.37;;;13.20;99.90;;;;;;5028343;28;21286;-81
2022/10/10 07:44:03;;;;;;;2.07;1.90;;;13.30;99.90;;;;;;5028396;28;20774;-81
2022/10/10 07:46:32;;;;;;;1.80;1.70;;;13.30;99.90;;;;;;5028629;28;20927;-82
2022/10/10 07:48:58;;;;;;;2.47;2.27;;;13.30;99.90;;;;;;5020518;28;20635;-81
2022/10/10 07:51:25;;;;;;;2.60;2.40;;;13.40;99.90;;;;;;5028439;28;20646;-81
2022/10/10 07:53:54;;;;;;;1.70;1.60;;;13.40;99.90;;;;;;5028070;28;20669;-81
2022/10/10 07:56:20;;;;;;;2.60;2.13;;;13.50;99.90;;;;;;5020383;28;20628;-81
2022/10/10 07:58:47;;;;;;;2.30;2.10;;;13.50;99.90;;;;;;5015855;28;20666;-79
2022/10/10 08:01:14;;;;;;;2.90;1.60;;;13.60;99.90;;;;;;5014969;28;20643;-81
2022/10/10 08:03:41;;;;;;;4.87;2.00;;;13.60;99.90;;;;;;5029433;28;20691;-81
2022/10/10 08:06:10;;;;;;;2.30;2.00;;;13.70;99.90;;;;;;5040031;28;20717;-81
2022/10/10 08:08:40;;;;;;;2.30;2.10;;;13.70;99.90;;;;;;5046486;28;20707;-81
2022/10/10 08:11:09;;;;;;;2.57;2.37;;;13.70;99.90;;;;;;5046097;28;20622;-81
2022/10/10 08:13:39;;;;;;;2.17;1.97;;;13.80;99.90;;;;;;5042888;28;20627;-81
2022/10/10 08:16:05;;;;;;;4.53;2.47;;;13.80;99.90;;;;;;5027815;28;20627;-81
2022/10/10 08:18:32;;;;;;;2.53;2.00;;;13.90;99.90;;;;;;5027545;28;21077;-81
2022/10/10 08:21:00;;;;;;;3.10;2.13;;;13.90;99.90;;;;;;5028052;28;21195;-81
2022/10/10 08:23:27;;;;;;;2.00;1.90;;;13.90;99.90;;;;;;5027412;28;20682;-81
2022/10/10 08:25:54;;;;;;;2.17;2.07;;;14.00;99.90;;;;;;5027589;28;21161;-81
2022/10/10 08:28:22;;;;;;;2.30;2.07;;;14.00;99.90;;;;;;5026975;28;20638;-81
2022/10/10 08:30:49;;;;;;;1.90;1.73;;;14.00;99.90;;;;;;5027929;28;20615;-81
2022/10/10 08:33:16;;;;;;;2.60;2.33;;;14.00;99.90;;;;;;5028062;28;20727;-82
2022/10/10 08:35:43;;;;;;;2.13;1.77;;;14.10;99.90;;;;;;5027710;28;20698;-81
2022/10/10 08:38:09;;;;;;;2.17;1.80;;;14.20;99.90;;;;;;5026732;28;20734;-80
2022/10/10 08:40:43;;;;;;;1.77;1.67;;;14.20;99.90;;;;;;5026013;28;20733;-81
2022/10/10 08:43:17;;;;;;;2.60;1.50;;;14.30;99.90;;;;;;5008065;28;20656;-81
2022/10/10 08:45:45;;;;;;;3.93;2.10;;;14.30;99.90;;;;;;5007985;28;20628;-81
2022/10/10 08:48:16;;;;;;;3.87;2.07;;;14.40;99.90;;;;;;5020890;28;20730;-81
2022/10/10 08:50:47;;;;;;;1.37;1.27;;;14.40;99.90;;;;;;5027897;28;20726;-81
2022/10/10 08:53:22;;;;;;;2.27;1.97;;;14.50;99.90;;;;;;5026734;28;20730;-82
2022/10/10 08:55:52;;;;;;;2.00;1.50;;;14.60;99.90;;;;;;5027396;28;20721;-80
2022/10/10 08:58:23;;;;;;;1.90;1.70;;;14.60;99.90;;;;;;5026853;28;20631;-81
2022/10/10 09:01:05;;;;;;;3.03;1.60;;;14.70;99.90;;;;;;5010978;28;20699;-81
2022/10/10 09:03:39;;;;;;;1.60;1.50;;;14.80;99.90;;;;;;5013504;28;20655;-82
2022/10/10 09:06:22;;;;;;;2.57;2.10;;;15.00;99.90;;;;;;5027868;28;20712;-81
2022/10/10 09:08:59;;;;;;;2.10;1.70;;;15.00;99.90;;;;;;5025626;28;20630;-81
2022/10/10 09:11:43;;;;;;;2.77;2.10;;;15.10;99.90;;;;;;5027465;28;20726;-81
2022/10/10 09:14:22;;;;;;;2.20;2.00;;;15.10;99.90;;;;;;5026879;28;20627;-82
2022/10/10 09:16:55;;;;;;;2.80;1.47;;;15.20;99.90;;;;;;5026949;28;20738;-81
2022/10/10 09:19:35;;;;;;;1.43;1.33;;;15.30;99.90;;;;;;5027509;28;20623;-82
2022/10/10 09:22:09;;;;;;;1.83;1.63;;;15.30;99.90;;;;;;5028847;28;20665;-81
2022/10/10 09:24:41;;;;;;;1.30;1.10;;;15.40;99.90;;;;;;5030349;28;20817;-81
2022/10/10 09:27:14;;;;;;;1.50;1.30;;;15.40;99.90;;;;;;5031008;28;20623;-81
2022/10/10 09:29:47;;;;;;;1.90;1.70;;;15.60;99.90;;;;;;5024043;28;20630;-81
2022/10/10 09:32:19;;;;;;;2.07;1.87;;;15.70;99.90;;;;;;5030894;28;20619;-82
2022/10/10 09:34:50;;;;;;;1.57;1.43;;;15.80;99.90;;;;;;5030557;28;20745;-81
2022/10/10 09:37:21;;;;;;;1.47;1.27;;;15.80;99.90;;;;;;5030192;28;20639;-81
2022/10/10 09:39:53;;;;;;;1.33;1.23;;;15.90;99.90;;;;;;5030244;28;20641;-81
2022/10/10 09:42:29;;;;;;;1.60;1.50;;;16.00;99.90;;;;;;5030206;28;20710;-81
2022/10/10 09:44:55;;;;;;;2.00;1.50;;;16.20;99.90;;;;;;5031172;28;20761;-81
2022/10/10 09:47:24;;;;;;;1.50;1.13;;;16.20;99.90;;;;;;5029862;28;21224;-83
2022/10/10 09:49:51;;;;;;;0.97;0.90;;;16.30;99.90;;;;;;5022871;28;20725;-81
2022/10/10 09:52:24;;;;;;;1.67;1.57;;;16.40;99.90;;;;;;5030723;28;20626;-81
2022/10/10 09:54:55;;;;;;;1.00;1.00;;;16.50;99.90;;;;;;5030041;28;20639;-82
2022/10/10 09:57:26;;;;;;;1.30;1.20;;;16.50;99.90;;;;;;5014133;28;20627;-82
2022/10/10 09:59:54;;;;;;;2.30;1.13;;;16.50;99.90;;;;;;5018114;28;20642;-82
2022/10/10 10:02:26;;;;;;;5.03;1.30;;;16.70;99.90;;;;;;5010584;28;21208;-81
2022/10/10 10:04:54;;;;;;;1.27;1.17;;;16.70;99.90;;;;;;5027835;28;20663;-81
2022/10/10 10:07:28;;;;;;;1.30;1.20;;;16.80;99.90;;;;;;5029600;28;20626;-81
2022/10/10 10:09:57;;;;;;;6.80;1.20;;;16.80;99.90;;;;;;5030070;28;21013;-81
2022/10/10 10:12:28;;;;;;;1.40;1.30;;;16.90;99.90;;;;;;5029788;28;20665;-82
2022/10/10 10:15:00;;;;;;;1.50;1.40;;;16.90;99.90;;;;;;5016656;28;20657;-82
2022/10/10 10:17:28;;;;;;;1.90;1.67;;;17.00;99.90;;;;;;5029378;28;20741;-81
2022/10/10 10:19:55;;;;;;;1.90;1.20;;;17.00;99.90;;;;;;5029847;28;21070;-81
2022/10/10 10:22:32;;;;;;;1.50;1.40;;;17.20;99.90;;;;;;5029899;28;20615;-82
2022/10/10 10:25:00;;;;;;;1.27;1.20;;;17.20;99.90;;;;;;5029355;28;20732;-81
2022/10/10 10:27:28;;;;;;;1.13;1.03;;;17.30;99.90;;;;;;5029283;28;20618;-81
2022/10/10 10:29:56;;;;;;;1.40;1.27;;;17.30;99.90;;;;;;5029946;28;21177;-81
2022/10/10 10:32:44;;;;;;;0.87;0.87;;;17.40;99.90;;;;;;5029081;28;20644;-82
2022/10/10 10:35:22;;;;;;;0.93;0.93;;;17.50;99.90;;;;;;5030393;28;20621;-81
2022/10/10 10:38:25;;;;;;;0.93;0.93;;;17.60;99.90;;;;;;5029077;28;20968;-82
2022/10/10 10:41:04;;;;;;;1.30;1.07;;;17.70;99.90;;;;;;5025955;28;20655;-81
2022/10/10 10:43:58;;;;;;;1.47;1.37;;;17.70;99.90;;;;;;5028792;28;20615;-82
2022/10/10 10:46:36;;;;;;;1.00;1.00;;;17.90;99.90;;;;;;5008379;28;21096;-81
2022/10/10 10:49:14;;;;;;;1.20;1.10;;;18.00;99.90;;;;;;5015814;28;20614;-82
2022/10/10 10:52:03;;;;;;;2.30;1.63;;;18.10;99.90;;;;;;5029330;28;20627;-81
2022/10/10 10:54:44;;;;;;;1.27;1.07;;;18.00;99.90;;;;;;5029076;28;20627;-81
2022/10/10 10:57:16;;;;;;;1.33;0.93;;;18.00;99.90;;;;;;5028299;28;20740;-82
2022/10/10 10:59:53;;;;;;;1.40;1.20;;;18.00;99.90;;;;;;5021391;28;20632;-82
2022/10/10 11:02:38;;;;;;;1.37;1.10;;;17.90;99.90;;;;;;5028573;28;21180;-82
2022/10/10 11:05:35;;;;;;;1.53;1.03;;;17.80;99.90;;;;;;5028410;28;20671;-81
2022/10/10 11:08:23;;;;;;;2.90;1.07;;;17.80;99.90;;;;;;5028578;28;20599;-82
2022/10/10 11:10:59;;;;;;;1.53;1.43;;;17.90;99.90;;;;;;5027153;28;21078;-82
2022/10/10 11:13:34;;;;;;;0.73;0.73;;;17.90;99.90;;;;;;5028898;28;20633;-82
2022/10/10 11:16:09;;;;;;;3.70;1.33;;;18.00;99.90;;;;;;5027789;28;20618;-81
2022/10/10 11:18:41;;;;;;;1.40;1.30;;;18.10;99.90;;;;;;5027861;28;20642;-81
2022/10/10 11:21:15;;;;;;;1.90;1.40;;;18.10;99.40;;;;;;5028378;28;20731;-83
2022/10/10 11:23:45;;;;;;;4.90;1.47;;;18.10;99.40;;;;;;5024857;28;20622;-80
2022/10/10 11:26:19;;;;;;;4.00;1.90;;;18.10;99.40;;;;;;5028985;28;20629;-82
2022/10/10 11:28:52;;;;;;;1.43;1.33;;;18.10;99.40;;;;;;5029415;28;20643;-82
2022/10/10 11:31:23;;;;;;;1.23;1.13;;;18.10;98.70;;;;;;5028904;28;20627;-82
2022/10/10 11:33:54;;;;;;;1.97;1.47;;;18.10;98.90;;;;;;5028149;28;20627;-82
2022/10/10 11:36:25;;;;;;;1.43;1.33;;;18.10;98.90;;;;;;5029207;28;20746;-82
2022/10/10 11:38:58;;;;;;;1.90;1.80;;;18.10;98.40;;;;;;5028022;28;20984;-82
2022/10/10 11:41:31;;;;;;;0.80;0.80;;;18.30;98.60;;;;;;5028189;28;20720;-81
2022/10/10 11:44:04;;;;;;;3.27;1.87;;;18.30;98.50;;;;;;5027591;28;20662;-82
2022/10/10 11:46:41;;;;;;;2.20;1.60;;;18.30;98.70;;;;;;5028658;28;20591;-82
2022/10/10 11:49:17;;;;;;;1.60;1.50;;;18.30;98.70;;;;;;5015667;28;20627;-82
2022/10/10 11:52:08;;;;;;;1.63;1.53;;;18.40;97.90;;;;;;5028674;28;20633;-82
2022/10/10 11:54:42;;;;;;;2.00;1.57;;;18.40;97.70;;;;;;5027822;28;21144;-81
2022/10/10 11:57:21;;;;;;;5.00;1.70;;;18.50;97.90;;;;;;5020671;28;20622;-81
2022/10/10 11:59:52;;;;;;;3.50;1.43;;;18.60;97.70;;;;;;5025211;28;20633;-82
2022/10/10 12:02:23;;;;;;;1.50;1.40;;;18.50;97.00;;;;;;5028351;28;21504;-82
2022/10/10 12:04:51;;;;;;;1.07;0.97;;;18.50;97.00;;;;;;5017428;28;20661;-83
2022/10/10 12:07:23;;;;;;;1.33;1.13;;;18.50;97.50;;;;;;5027641;28;20629;-81
2022/10/10 12:09:53;;;;;;;1.57;1.20;;;18.60;97.60;;;;;;5027414;28;21180;-81
2022/10/10 12:12:25;;;;;;;3.80;1.43;;;18.70;97.40;;;;;;5027871;28;20705;-81
2022/10/10 12:14:54;;;;;;;1.87;1.70;;;18.70;97.10;;;;;;5028111;28;20619;-82
2022/10/10 12:17:25;;;;;;;1.60;1.50;;;18.70;96.70;;;;;;5026987;28;20623;-82
2022/10/10 12:19:53;;;;;;;2.20;1.23;;;18.70;96.00;;;;;;5027829;28;20618;-81
2022/10/10 12:22:27;;;;;;;2.40;1.50;;;18.90;95.70;;;;;;5027881;28;21181;-80
2022/10/10 12:25:21;;;;;;;5.43;1.80;;;19.00;95.80;;;;;;5027792;28;20665;-80
2022/10/10 12:28:03;;;;;;;1.83;1.40;;;19.00;95.80;;;;;;5026846;28;20629;-82
2022/10/10 12:30:30;;;;;;;1.90;1.70;;;18.90;96.00;;;;;;5027862;28;20622;-81
2022/10/10 12:32:57;;;;;;;5.53;1.67;;;18.90;96.40;;;;;;5027955;28;20653;-80
2022/10/10 12:35:34;;;;;;;1.83;1.60;;;18.90;95.50;;;;;;5027920;28;20714;-80
2022/10/10 12:38:15;;;;;;;2.10;1.40;;;19.10;95.20;;;;;;5027430;28;20626;-79
2022/10/10 12:41:22;;;;;;;1.40;1.10;;;19.10;95.70;;;;;;5022318;28;20642;-80
2022/10/10 12:43:52;;;;;;;2.27;1.20;;;19.20;95.60;;;;;;5027869;28;20621;-81
2022/10/10 12:46:26;;;;;;;1.33;1.20;;;19.30;94.90;;;;;;5027847;28;20738;-81
2022/10/10 12:49:06;;;;;;;1.13;1.10;;;19.40;95.20;;;;;;5021419;28;20624;-80
2022/10/10 12:51:35;;;;;;;1.40;1.20;;;19.50;94.20;;;;;;5007938;28;20624;-81
2022/10/10 12:54:07;;;;;;;6.00;1.33;;;19.50;92.90;;;;;;5007974;28;20758;-80
2022/10/10 12:56:37;;;;;;;3.10;1.37;;;19.60;93.90;;;;;;5010596;28;20638;-80
2022/10/10 12:59:06;;;;;;;1.43;1.33;;;19.50;93.80;;;;;;5019706;28;21002;-80
2022/10/10 13:01:36;;;;;;;1.80;1.50;;;19.60;93.30;;;;;;5012082;28;20739;-81
2022/10/10 13:04:03;;;;;;;2.80;1.13;;;19.60;93.80;;;;;;5017340;28;21046;-81